logo
Rechercher aéroport 
image banner adimage banner adimage banner ad
image banner ad

MZRD - Rio Dorado Airstrip

Situé à , Belize

ICAO - , IATA -

Données fournies par Airmate  

Information générale

Coordonnées: N16°18'42" W88°49'33"
Élévation : 95 feet MSL.
 
Voir autres Aéroports à Toledo District

Données opérationnelles

Special qualification required
Heure actuelle UTC:
Heure actuelle locale:
Météo à : - ( 0 km )
METAR: HTBU 246500Z 11015KT 9999 SCT019 FEW021CB SCT090 25/19 Q1019 NOSIG
Voir NOTAMs / SUP AIP / TFR affectant cet aéroport [VIEW]
Fréquences de communication: [VIEW]

Pistes:

Coordonnées de l'aéroport

Adresse: Belize

Vue satellite de MZRD